Warm Springs, Virginia
Current Conditions -  °F | °C
As of 10:55 PM on Saturday 25 Oct 2014 (Local Time) from KHSP Reporting Station
Clear Clear  
Wind Chill: 51°   Ceiling: Unl
Heat Index: 51°   Visibility: 10mi
Dew Point: 46°   Wind: 22mph
Humidity: 85%   Direction: 280°W
Pressure: 29.85"   Gusts: 31mph
Location:  38.05°N, 79.79°W
Report Text: KHSP 260255Z AUTO 28019G27KT 10SM CLR 11/08 A2985 RMK AO2 T01050080
Loading
Personal Weather Stations






























Interactive Weather Map New forecast layout! Learn more

10-Day Weather Forecast

Advertisements
Track Severe Weather on mobile